Time;durP1;ratioP1;P1;durP2;ratioP2;P2;SDS_P1;SDS_P2;PMS_P1;PMS_P2;Temp;Humidity;BMP_temperature;BMP_pressure;BME280_temperature;BME280_humidity;BME280_pressure;Samples;Min_cycle;Max_cycle;Signal;HPM_P1;HPM_P2
2023/11/01 00:00:20;;;;;;;10.60;2.60;;;;;;;16.88;60.65;93606.84;5042471;28;20200;-79
2023/11/01 00:02:46;;;;;;;13.45;3.40;;;;;;;16.75;61.94;93605.44;5042725;28;20020;-79
2023/11/01 00:05:12;;;;;;;8.90;2.47;;;;;;;16.50;62.92;93621.91;5042532;28;20021;-80
2023/11/01 00:07:37;;;;;;;11.63;2.35;;;;;;;16.42;63.68;93626.41;5042562;28;20226;-79
2023/11/01 00:10:03;;;;;;;7.97;2.58;;;;;;;16.09;64.10;93631.47;5042412;28;20213;-79
2023/11/01 00:12:29;;;;;;;10.68;2.30;;;;;;;15.77;63.58;93645.81;5042406;28;20021;-79
2023/11/01 00:14:54;;;;;;;10.30;2.28;;;;;;;15.92;63.35;93646.13;5042388;28;20119;-79
2023/11/01 00:17:20;;;;;;;12.65;2.75;;;;;;;15.86;64.33;93639.47;5042530;28;20040;-79
2023/11/01 00:19:45;;;;;;;5.55;2.53;;;;;;;15.86;62.31;93642.16;5042313;28;20291;-79
2023/11/01 00:22:11;;;;;;;8.75;2.45;;;;;;;15.86;65.65;93628.72;5042481;28;20054;-79
2023/11/01 00:24:37;;;;;;;8.93;2.15;;;;;;;15.85;67.25;93646.72;5042237;28;20014;-79
2023/11/01 00:27:03;;;;;;;6.93;2.22;;;;;;;15.79;68.55;93653.50;5042445;28;20017;-79
2023/11/01 00:29:28;;;;;;;10.65;2.47;;;;;;;15.71;68.56;93639.09;5041065;28;20307;-79
2023/11/01 00:31:54;;;;;;;12.07;2.45;;;;;;;15.68;68.86;93655.16;5042276;28;20136;-79
2023/11/01 00:34:19;;;;;;;6.47;2.03;;;;;;;15.61;69.81;93631.56;5042158;28;20105;-79
2023/11/01 00:36:45;;;;;;;7.60;2.33;;;;;;;15.47;70.64;93609.78;5042436;28;20029;-79
2023/11/01 00:39:10;;;;;;;9.98;3.22;;;;;;;15.39;71.24;93631.09;5042098;28;20060;-78
2023/11/01 00:41:35;;;;;;;8.50;2.53;;;;;;;15.21;72.47;93641.41;5042310;28;20025;-78
2023/11/01 00:44:01;;;;;;;6.88;2.47;;;;;;;15.17;74.66;93623.69;5041976;28;20022;-79
2023/11/01 00:46:27;;;;;;;12.95;3.08;;;;;;;15.12;75.41;93638.16;5042213;28;20426;-78
2023/11/01 00:48:53;;;;;;;11.43;2.10;;;;;;;15.09;75.10;93640.75;5045076;28;20017;-78
2023/11/01 00:51:18;;;;;;;8.40;2.70;;;;;;;15.03;75.43;93651.72;5044681;28;20040;-78
2023/11/01 00:53:43;;;;;;;15.13;3.03;;;;;;;15.02;76.82;93660.91;5045751;28;20075;-78
2023/11/01 00:56:09;;;;;;;10.48;3.17;;;;;;;15.03;77.78;93672.41;5045596;28;20056;-79
2023/11/01 00:58:35;;;;;;;17.40;3.53;;;;;;;15.04;79.20;93673.97;5044467;28;20192;-79
2023/11/01 01:01:00;;;;;;;14.57;3.80;;;;;;;15.07;79.56;93667.91;5045714;28;20032;-79
2023/11/01 01:03:26;;;;;;;11.18;3.05;;;;;;;15.02;79.68;93644.81;5045693;28;20095;-79
2023/11/01 01:05:51;;;;;;;9.77;3.42;;;;;;;15.07;80.04;93656.41;5044186;28;20323;-79
2023/11/01 01:08:17;;;;;;;15.32;3.63;;;;;;;15.09;79.79;93648.78;5045686;28;20025;-79
2023/11/01 01:10:42;;;;;;;10.77;3.30;;;;;;;15.13;79.29;93645.06;5045398;28;20017;-80
2023/11/01 01:13:08;;;;;;;14.85;4.18;;;;;;;15.10;79.54;93628.88;5045365;28;20029;-79
2023/11/01 01:15:33;;;;;;;14.32;4.13;;;;;;;15.12;80.14;93646.19;5045289;28;20036;-79
2023/11/01 01:17:59;;;;;;;11.32;3.65;;;;;;;15.05;80.23;93665.56;5045220;28;20048;-78
2023/11/01 01:20:24;;;;;;;17.70;3.90;;;;;;;14.96;80.25;93674.91;5044952;28;20116;-79
2023/11/01 01:22:50;;;;;;;8.75;3.17;;;;;;;14.85;79.98;93667.38;5045121;28;20049;-79
2023/11/01 01:25:15;;;;;;;12.30;3.95;;;;;;;14.78;81.81;93650.31;5045426;28;20085;-79
2023/11/01 01:27:41;;;;;;;14.18;4.93;;;;;;;14.71;81.72;93647.44;5045166;28;20021;-79
2023/11/01 01:30:07;;;;;;;15.13;3.45;;;;;;;14.64;82.34;93642.69;5045131;28;20021;-79
2023/11/01 01:32:33;;;;;;;13.77;5.35;;;;;;;14.62;82.28;93658.34;5045123;28;20032;-79
2023/11/01 01:34:59;;;;;;;8.40;3.50;;;;;;;14.60;82.45;93649.84;5044690;28;20025;-79
2023/11/01 01:37:25;;;;;;;12.70;3.17;;;;;;;14.42;82.56;93650.13;5045234;28;20357;-79
2023/11/01 01:39:50;;;;;;;11.55;4.43;;;;;;;14.31;81.25;93649.06;5044962;28;20312;-79
2023/11/01 01:42:16;;;;;;;11.52;3.92;;;;;;;14.22;81.54;93651.88;5043966;28;20021;-79
2023/11/01 01:44:41;;;;;;;9.60;4.50;;;;;;;14.15;82.58;93650.91;5044782;28;20014;-79
2023/11/01 01:47:07;;;;;;;15.55;5.03;;;;;;;14.16;83.15;93647.88;5043534;28;20067;-79
2023/11/01 01:49:33;;;;;;;12.23;4.03;;;;;;;14.18;83.16;93658.25;5044958;28;20327;-79
2023/11/01 01:52:00;;;;;;;11.20;3.70;;;;;;;14.21;83.58;93658.38;5045028;28;20017;-79
2023/11/01 01:54:27;;;;;;;6.88;3.78;;;;;;;14.22;84.02;93656.44;5044760;28;20056;-79
2023/11/01 01:56:53;;;;;;;13.32;4.00;;;;;;;14.23;84.49;93677.56;5044886;28;20021;-79
2023/11/01 01:59:18;;;;;;;11.80;3.75;;;;;;;14.32;85.32;93684.69;5044706;28;20080;-79
2023/11/01 02:01:45;;;;;;;15.75;5.10;;;;;;;14.34;84.82;93693.94;5044392;28;20033;-79
2023/11/01 02:04:12;;;;;;;15.65;4.68;;;;;;;14.40;85.42;93684.53;5044424;28;20222;-79
2023/11/01 02:06:38;;;;;;;12.80;4.40;;;;;;;14.41;85.54;93682.63;5043514;28;20096;-78
2023/11/01 02:09:05;;;;;;;15.23;3.97;;;;;;;14.37;84.97;93673.72;5042165;28;20356;-79
2023/11/01 02:11:36;;;;;;;13.50;4.95;;;;;;;14.36;85.05;93656.06;5041836;28;20112;-78
2023/11/01 02:14:01;;;;;;;10.35;4.50;;;;;;;14.21;85.95;93647.63;5042547;28;20021;-79
2023/11/01 02:16:27;;;;;;;19.48;5.13;;;;;;;14.17;86.14;93641.41;5042619;28;20026;-78
2023/11/01 02:18:52;;;;;;;12.23;5.03;;;;;;;14.17;86.43;93636.03;5044137;28;20056;-78
2023/11/01 02:21:17;;;;;;;10.32;4.38;;;;;;;14.18;86.70;93623.41;5042961;28;20025;-78
2023/11/01 02:23:43;;;;;;;12.48;4.90;;;;;;;14.00;87.95;93639.78;5044124;28;20279;-79
2023/11/01 02:26:09;;;;;;;17.23;5.78;;;;;;;13.90;88.48;93645.63;5042748;28;20425;-79
2023/11/01 02:28:35;;;;;;;11.68;5.95;;;;;;;14.04;87.94;93658.63;5044022;28;20051;-79
2023/11/01 02:31:00;;;;;;;13.93;4.75;;;;;;;14.02;86.98;93667.03;5043757;28;20219;-79
2023/11/01 02:33:26;;;;;;;14.98;4.55;;;;;;;13.97;86.55;93674.50;5044092;28;20059;-79
2023/11/01 02:35:52;;;;;;;12.18;4.90;;;;;;;13.85;87.64;93672.63;5043737;28;20025;-79
2023/11/01 02:38:17;;;;;;;10.48;4.53;;;;;;;13.79;88.27;93682.78;5043937;28;20021;-79
2023/11/01 02:40:42;;;;;;;8.38;4.30;;;;;;;13.72;89.04;93693.31;5043642;28;20370;-79
2023/11/01 02:43:09;;;;;;;11.20;4.80;;;;;;;13.65;89.75;93698.44;5043566;28;20026;-79
2023/11/01 02:45:34;;;;;;;8.98;4.43;;;;;;;13.62;90.57;93694.53;5043849;28;20018;-79
2023/11/01 02:47:59;;;;;;;12.95;4.32;;;;;;;13.58;90.38;93700.91;5042549;28;20021;-79
2023/11/01 02:50:25;;;;;;;15.68;5.43;;;;;;;13.59;90.99;93702.44;5043659;28;20017;-79
2023/11/01 02:52:50;;;;;;;14.95;4.78;;;;;;;13.65;90.89;93703.78;5043466;28;20028;-79
2023/11/01 02:55:16;;;;;;;14.55;5.18;;;;;;;13.67;90.71;93701.56;5043665;28;20051;-79
2023/11/01 02:57:43;;;;;;;12.23;4.68;;;;;;;13.72;90.52;93693.31;5042376;28;20389;-78
2023/11/01 03:00:18;;;;;;;11.35;4.13;;;;;;;13.76;90.45;93694.19;5043341;28;20018;-79
2023/11/01 03:02:53;;;;;;;13.88;4.93;;;;;;;13.77;90.67;93686.94;5043290;28;20092;-79
2023/11/01 03:05:19;;;;;;;13.23;5.00;;;;;;;13.80;90.32;93703.13;5043418;28;20021;-79
2023/11/01 03:07:45;;;;;;;16.42;5.22;;;;;;;13.83;89.91;93694.38;5043187;28;20029;-79
2023/11/01 03:10:11;;;;;;;13.82;5.75;;;;;;;13.87;89.65;93701.78;5041422;28;20028;-79
2023/11/01 03:12:38;;;;;;;9.90;5.30;;;;;;;13.92;89.55;93696.16;5043189;28;20033;-78
2023/11/01 03:15:04;;;;;;;15.98;5.05;;;;;;;13.98;89.08;93695.63;5043027;28;20311;-78
2023/11/01 03:17:29;;;;;;;12.30;6.07;;;;;;;14.02;89.32;93706.41;5058477;28;20021;-78
2023/11/01 03:19:55;;;;;;;12.93;6.30;;;;;;;14.03;89.29;93714.13;5042806;28;20049;-78
2023/11/01 03:22:23;;;;;;;15.13;6.50;;;;;;;13.97;89.17;93726.19;5041765;28;20254;-79
2023/11/01 03:24:48;;;;;;;15.02;6.80;;;;;;;14.02;88.26;93743.94;5043347;28;20030;-78
2023/11/01 03:27:14;;;;;;;14.63;6.57;;;;;;;13.97;88.42;93717.38;5041778;28;20434;-79
2023/11/01 03:29:39;;;;;;;12.80;7.13;;;;;;;13.99;88.43;93713.25;5041593;28;20037;-78
2023/11/01 03:32:05;;;;;;;14.38;7.30;;;;;;;13.97;88.09;93722.75;5042827;28;20339;-78
2023/11/01 03:34:30;;;;;;;13.20;6.82;;;;;;;13.96;88.06;93708.56;5042842;28;20036;-78
2023/11/01 03:36:56;;;;;;;15.00;7.25;;;;;;;13.97;87.75;93704.00;5042719;28;20032;-78
2023/11/01 03:39:21;;;;;;;15.93;8.65;;;;;;;13.99;87.60;93701.75;5041609;28;20087;-79
2023/11/01 07:58:43;;;;;;;17.52;6.85;;;;;;;15.62;78.95;93886.44;4614756;31;20062;-85
2023/11/01 08:01:09;;;;;;;12.35;4.80;;;;;;;15.79;77.78;93885.41;4587735;31;20182;-87
2023/11/01 08:03:35;;;;;;;9.75;4.85;;;;;;;15.87;78.17;93897.09;4558944;31;20352;-86
2023/11/01 08:06:01;;;;;;;13.77;5.07;;;;;;;16.01;78.21;93896.66;4601929;31;20060;-87
2023/11/01 08:08:27;;;;;;;9.95;5.00;;;;;;;16.11;77.28;93906.91;4611708;31;20402;-87
2023/11/01 08:10:52;;;;;;;9.50;5.47;;;;;;;16.21;76.97;93902.94;4631633;30;20238;-86
2023/11/01 08:13:18;;;;;;;12.38;4.75;;;;;;;16.25;75.49;93896.50;4692855;30;20511;-86
2023/11/01 08:15:43;;;;;;;13.80;5.85;;;;;;;16.30;75.28;93903.53;4693509;30;20038;-85
2023/11/01 08:18:10;;;;;;;11.88;5.75;;;;;;;16.34;75.81;93901.69;4717273;30;20439;-87
2023/11/01 08:20:36;;;;;;;14.32;5.80;;;;;;;16.45;76.23;93904.66;4764860;30;20055;-88
2023/11/01 08:23:02;;;;;;;15.20;6.25;;;;;;;16.54;76.69;93902.56;4846731;29;20042;-86
2023/11/01 08:25:27;;;;;;;14.13;5.30;;;;;;;16.64;75.88;93902.00;4882552;29;20070;-86
2023/11/01 08:27:52;;;;;;;19.20;5.82;;;;;;;16.74;74.55;93905.31;4911952;29;20032;-87
2023/11/01 08:30:18;;;;;;;15.15;6.03;;;;;;;16.78;72.89;93911.56;4928650;29;20241;-87
2023/11/01 08:32:43;;;;;;;19.45;6.63;;;;;;;16.76;74.60;93919.19;4976722;28;20066;-87
2023/11/01 08:35:09;;;;;;;20.45;6.05;;;;;;;16.74;74.97;93916.84;5007169;28;20138;-87
2023/11/01 08:37:36;;;;;;;18.90;6.35;;;;;;;16.73;74.52;93919.88;5007282;28;20053;-86
2023/11/01 08:40:01;;;;;;;17.00;5.90;;;;;;;16.67;73.69;93938.22;5006693;28;20030;-85
2023/11/01 08:42:28;;;;;;;14.32;5.13;;;;;;;16.53;74.22;93946.75;5007095;28;20038;-86
2023/11/01 08:44:54;;;;;;;17.73;6.53;;;;;;;16.37;75.65;93937.91;5005740;28;20321;-85
2023/11/01 08:47:36;;;;;;;16.23;6.15;;;;;;;16.20;76.55;93944.38;5006878;28;20030;-84
2023/11/01 08:50:03;;;;;;;22.98;10.13;;;;;;;16.01;77.83;93951.22;5006769;28;20273;-86
2023/11/01 08:52:29;;;;;;;13.45;6.28;;;;;;;15.71;79.03;93953.47;5006795;28;20034;-86
2023/11/01 08:54:57;;;;;;;7.90;3.90;;;;;;;15.34;81.14;93956.28;5021804;28;20020;-85
2023/11/01 08:57:22;;;;;;;10.15;4.32;;;;;;;15.06;81.55;93953.53;5021760;28;20057;-84
2023/11/01 08:59:51;;;;;;;9.35;5.18;;;;;;;14.76;82.77;93961.88;5037919;28;20053;-85
2023/11/01 09:02:17;;;;;;;12.00;3.88;;;;;;;14.71;83.28;93958.63;5045872;28;20100;-86
2023/11/01 09:04:43;;;;;;;10.10;4.10;;;;;;;14.64;82.92;93959.97;5046035;28;20035;-85
2023/11/01 09:07:09;;;;;;;10.48;3.45;;;;;;;14.53;82.85;93963.41;5045012;28;20045;-86
2023/11/01 09:09:35;;;;;;;13.68;3.15;;;;;;;14.45;84.59;93962.41;5043630;28;20032;-87
2023/11/01 09:12:01;;;;;;;9.32;4.07;;;;;;;14.49;85.29;93965.19;5045779;28;20088;-86
2023/11/01 09:14:26;;;;;;;11.20;4.07;;;;;;;14.52;84.09;93959.16;5045670;28;20220;-86
2023/11/01 09:16:52;;;;;;;7.90;2.28;;;;;;;14.73;81.08;93957.16;5045634;28;20033;-85
2023/11/01 09:19:17;;;;;;;6.00;2.38;;;;;;;14.81;79.26;93960.84;5046156;28;20295;-88
2023/11/01 09:21:45;;;;;;;8.00;2.40;;;;;;;14.89;78.51;93962.63;5046046;28;20029;-87
2023/11/01 09:24:10;;;;;;;7.35;2.80;;;;;;;15.02;79.87;93966.88;5045509;28;20029;-85
2023/11/01 09:26:36;;;;;;;9.65;3.00;;;;;;;15.13;78.00;93966.41;5044594;28;20093;-85
2023/11/01 09:29:01;;;;;;;5.75;2.33;;;;;;;15.19;77.66;93965.06;5045542;28;20041;-88
2023/11/01 09:31:26;;;;;;;7.68;2.88;;;;;;;15.12;76.12;93957.59;5046905;28;20037;-88
2023/11/01 09:33:52;;;;;;;6.63;2.70;;;;;;;15.10;75.14;93967.09;5053669;28;20021;-88
2023/11/01 09:36:17;;;;;;;11.25;4.57;;;;;;;15.02;76.81;93974.94;5050921;28;20025;-86
2023/11/01 09:38:45;;;;;;;13.77;4.82;;;;;;;14.94;78.59;93970.47;5052135;28;20101;-88
2023/11/01 09:41:17;;;;;;;14.15;6.70;;;;;;;14.84;79.10;93962.88;5048266;28;20092;-86
2023/11/01 09:43:43;;;;;;;13.50;5.88;;;;;;;14.83;78.93;93958.63;5045940;28;20025;-90
2023/11/01 09:46:08;;;;;;;11.73;6.53;;;;;;;14.69;79.04;93961.66;5046000;28;20092;-90
2023/11/01 09:48:34;;;;;;;11.70;6.22;;;;;;;14.55;78.94;93959.28;5046403;28;20259;-88
2023/11/01 09:51:01;;;;;;;13.60;7.80;;;;;;;14.45;79.42;93957.06;5044461;28;20021;-90
2023/11/01 09:53:27;;;;;;;19.38;8.77;;;;;;;14.33;80.23;93957.00;5045487;28;20018;-91
2023/11/01 09:55:53;;;;;;;11.98;6.60;;;;;;;14.21;79.36;93949.75;5046076;28;20258;-90
2023/11/01 09:58:28;;;;;;;9.43;6.70;;;;;;;14.19;79.74;93950.09;5045621;28;20075;-92
2023/11/01 10:00:54;;;;;;;14.60;6.93;;;;;;;14.19;80.13;93947.41;5045840;28;20025;-91
2023/11/01 10:03:24;;;;;;;10.07;6.93;;;;;;;14.27;81.13;93944.94;5045844;28;20037;-91
2023/11/01 10:05:49;;;;;;;15.93;6.50;;;;;;;14.34;79.33;93945.97;5045649;28;20084;-91
2023/11/01 10:08:15;;;;;;;10.27;6.40;;;;;;;14.43;79.12;93945.84;5045564;28;20028;-89
2023/11/01 10:10:41;;;;;;;12.30;6.20;;;;;;;14.51;77.99;93934.25;5044771;28;20075;-88
2023/11/01 10:13:08;;;;;;;10.55;6.43;;;;;;;14.59;78.47;93933.41;5045775;28;20036;-92
2023/11/01 10:15:33;;;;;;;12.02;6.30;;;;;;;14.68;78.77;93940.53;5045273;28;20051;-90
2023/11/01 10:17:59;;;;;;;11.15;6.30;;;;;;;14.70;76.84;93932.94;5045113;28;20334;-90
2023/11/01 10:20:27;;;;;;;11.18;6.07;;;;;;;14.74;77.11;93939.97;5045540;28;20067;-90
2023/11/01 10:22:54;;;;;;;10.48;6.25;;;;;;;14.69;76.11;93931.34;5047926;28;20028;-89
2023/11/01 10:25:20;;;;;;;15.20;5.78;;;;;;;14.78;76.56;93932.81;5052729;28;20021;-89
2023/11/01 10:27:47;;;;;;;11.35;7.00;;;;;;;14.91;76.37;93936.25;5054148;28;20147;-86
2023/11/01 10:30:13;;;;;;;11.10;5.80;;;;;;;15.04;76.02;93934.31;5054555;28;20124;-86
2023/11/01 10:32:39;;;;;;;12.98;6.20;;;;;;;15.15;76.12;93938.09;5051659;28;20029;-89
2023/11/01 10:35:14;;;;;;;9.95;5.45;;;;;;;15.25;74.71;93934.16;5049783;28;20101;-88
2023/11/01 10:37:40;;;;;;;11.50;6.07;;;;;;;15.35;74.59;93939.06;5050461;28;20033;-88
2023/11/01 10:40:09;;;;;;;13.32;5.13;;;;;;;15.45;72.91;93930.53;5055032;28;20037;-86
2023/11/01 10:42:39;;;;;;;8.25;5.40;;;;;;;15.52;73.80;93932.63;5052057;28;20044;-88
2023/11/01 10:45:04;;;;;;;9.77;5.32;;;;;;;15.72;73.52;93927.38;5050857;28;20063;-89
2023/11/01 10:47:31;;;;;;;7.65;4.85;;;;;;;15.80;72.75;93929.16;5050627;28;20021;-90
2023/11/01 10:49:57;;;;;;;9.57;5.95;;;;;;;15.79;70.60;93924.91;5048291;28;20025;-88
2023/11/01 10:52:26;;;;;;;13.50;5.22;;;;;;;15.70;70.32;93935.78;5046756;28;20025;-89
2023/11/01 10:54:54;;;;;;;8.32;4.70;;;;;;;15.75;72.15;93918.66;5045933;28;20025;-87
2023/11/01 10:57:20;;;;;;;8.85;4.60;;;;;;;15.73;69.24;93918.22;5044970;28;20088;-87
2023/11/01 11:00:00;;;;;;;10.05;4.97;;;;;;;15.64;70.92;93903.00;5044099;28;20041;-87
2023/11/01 11:02:37;;;;;;;9.65;5.18;;;;;;;15.76;70.05;93925.59;5043971;28;20048;-85
2023/11/01 11:05:07;;;;;;;9.68;4.38;;;;;;;15.78;71.05;93910.69;5045003;28;20251;-86
2023/11/01 11:07:53;;;;;;;11.30;4.50;;;;;;;15.79;69.50;93903.41;5043017;28;20029;-78
2023/11/01 11:10:26;;;;;;;8.38;4.63;;;;;;;15.80;68.83;93913.03;5047434;28;20028;-86
2023/11/01 11:13:16;;;;;;;;;;;;;;;15.81;68.30;93914.59;5047246;28;20036;-85
2023/11/01 11:18:24;;;;;;;13.48;4.25;;;;;;;15.95;67.22;93908.81;5047056;28;20100;-87
2023/11/01 11:20:58;;;;;;;12.63;4.55;;;;;;;16.03;67.20;93907.88;5047266;28;20017;-86
2023/11/01 11:23:33;;;;;;;8.35;4.47;;;;;;;16.15;66.96;93897.03;5045514;28;20021;-86
2023/11/01 11:26:00;;;;;;;7.20;3.92;;;;;;;16.20;63.74;93902.16;5042583;28;20025;-85
2023/11/01 11:28:31;;;;;;;6.68;3.58;;;;;;;16.23;63.18;93893.38;5042118;28;20025;-77
2023/11/01 11:31:05;;;;;;;9.32;4.43;;;;;;;16.22;63.45;93902.59;5043765;28;20227;-87
2023/11/01 11:33:32;;;;;;;9.75;3.92;;;;;;;16.27;62.20;93887.31;5043479;28;20025;-87
2023/11/01 11:36:18;;;;;;;10.40;3.67;;;;;;;16.33;61.90;93883.25;5042250;28;20059;-85
2023/11/01 11:38:53;;;;;;;7.47;3.63;;;;;;;16.45;62.43;93888.53;5042762;28;20255;-87
2023/11/01 11:41:18;;;;;;;6.80;4.00;;;;;;;16.61;61.70;93889.28;5045035;28;20084;-88
2023/11/01 11:44:29;;;;;;;12.48;4.10;;;;;;;16.76;59.65;93884.22;5045038;28;20338;-87
2023/11/01 11:46:55;;;;;;;14.15;5.25;;;;;;;16.72;59.77;93886.81;5044340;28;20025;-87
2023/11/01 11:49:26;;;;;;;9.95;3.95;;;;;;;16.74;58.92;93894.53;5042923;28;20045;-85
2023/11/01 11:51:55;;;;;;;14.13;5.25;;;;;;;16.65;58.96;93887.44;5042908;28;20032;-86
2023/11/01 11:54:22;;;;;;;9.43;4.15;;;;;;;16.63;59.08;93878.94;5045817;28;20029;-86
2023/11/01 11:56:56;;;;;;;6.97;3.65;;;;;;;16.62;59.71;93879.28;5045193;28;20024;-87
2023/11/01 11:59:27;;;;;;;7.55;3.92;;;;;;;16.45;59.67;93886.59;5043520;28;20049;-87
2023/11/01 12:01:56;;;;;;;5.85;3.85;;;;;;;16.38;59.90;93888.34;5042505;28;20021;-87
2023/11/01 12:04:27;;;;;;;5.50;3.67;;;;;;;16.36;59.53;93888.69;5044204;28;20096;-87
2023/11/01 12:06:54;;;;;;;5.95;4.15;;;;;;;16.39;60.02;93895.28;5045183;28;20017;-87
2023/11/01 12:09:20;;;;;;;11.57;4.60;;;;;;;16.51;59.28;93884.44;5044053;28;20030;-87
2023/11/01 12:11:51;;;;;;;5.82;3.58;;;;;;;16.50;59.44;93876.69;5043544;28;20049;-88
2023/11/01 12:14:27;;;;;;;10.02;4.13;;;;;;;16.64;58.97;93888.56;5044873;28;20075;-88
2023/11/01 12:16:56;;;;;;;6.47;3.70;;;;;;;16.81;59.32;93883.94;5042970;28;20029;-87
2023/11/01 12:19:23;;;;;;;8.65;3.85;;;;;;;16.98;58.50;93880.88;5043304;28;20246;-86
2023/11/01 12:21:49;;;;;;;9.50;4.05;;;;;;;17.09;56.24;93883.00;5043433;28;20021;-87
2023/11/01 12:24:16;;;;;;;8.10;4.35;;;;;;;17.13;57.26;93883.84;5042173;28;20025;-88
2023/11/01 12:27:04;;;;;;;9.15;4.18;;;;;;;17.21;56.00;93882.88;5043646;28;20343;-86
2023/11/01 12:29:34;;;;;;;14.65;4.03;;;;;;;17.29;54.43;93881.09;5042952;28;20289;-87
2023/11/01 12:32:11;;;;;;;9.00;4.22;;;;;;;17.42;54.62;93875.22;5042783;28;20013;-86
2023/11/01 12:34:39;;;;;;;11.27;4.32;;;;;;;17.62;54.25;93886.75;5042771;28;20025;-85
2023/11/01 12:37:13;;;;;;;13.95;4.13;;;;;;;17.79;53.57;93884.75;5042720;28;20044;-88
2023/11/01 12:39:39;;;;;;;9.02;3.75;;;;;;;17.80;51.98;93878.97;5043836;28;20021;-88
2023/11/01 12:42:25;;;;;;;9.25;3.30;;;;;;;17.71;51.89;93873.06;5044845;28;20031;-86
2023/11/01 12:44:52;;;;;;;12.95;3.70;;;;;;;17.74;52.78;93880.41;5046199;28;20085;-86
2023/11/01 12:47:18;;;;;;;9.32;3.40;;;;;;;17.71;52.19;93883.03;5046983;28;20338;-86
2023/11/01 12:49:44;;;;;;;11.07;4.00;;;;;;;17.75;52.42;93873.13;5047087;28;20029;-86
2023/11/01 12:52:09;;;;;;;10.18;4.00;;;;;;;17.77;51.72;93874.31;5050570;28;20032;-87
2023/11/01 12:54:35;;;;;;;4.43;2.80;;;;;;;17.70;51.36;93863.41;5050091;28;20029;-88
2023/11/01 12:57:01;;;;;;;5.80;3.15;;;;;;;17.72;51.93;93866.50;5048374;28;20096;-86
2023/11/01 12:59:27;;;;;;;8.52;2.72;;;;;;;17.75;51.48;93865.03;5047988;28;20041;-89
2023/11/01 13:01:55;;;;;;;6.20;3.05;;;;;;;17.71;51.23;93869.56;5046645;28;20254;-87
2023/11/01 13:04:21;;;;;;;5.28;3.42;;;;;;;17.74;51.87;93863.47;5046411;28;20021;-86
2023/11/01 13:06:47;;;;;;;6.63;2.88;;;;;;;17.68;51.08;93870.28;5045410;28;20189;-88
2023/11/01 13:09:14;;;;;;;11.35;3.55;;;;;;;17.59;51.20;93860.50;5045511;28;20276;-87
2023/11/01 13:11:40;;;;;;;8.90;2.92;;;;;;;17.72;51.27;93861.13;5046458;28;20029;-85
2023/11/01 13:14:05;;;;;;;10.23;3.33;;;;;;;17.69;50.78;93852.97;5045695;28;20200;-86
2023/11/01 13:16:30;;;;;;;8.32;3.00;;;;;;;17.71;51.36;93851.50;5045626;28;20327;-88
2023/11/01 13:18:56;;;;;;;6.95;2.78;;;;;;;17.64;51.10;93844.03;5045431;28;20028;-91
2023/11/01 13:21:21;;;;;;;8.70;3.50;;;;;;;17.67;51.15;93847.16;5046158;28;20324;-87
2023/11/01 13:23:47;;;;;;;8.02;3.33;;;;;;;17.70;51.15;93831.06;5046211;28;20395;-88
2023/11/01 13:26:12;;;;;;;10.10;3.30;;;;;;;17.77;50.49;93838.50;5045459;28;20096;-86
2023/11/01 13:28:38;;;;;;;15.60;3.20;;;;;;;17.87;49.71;93845.22;5045539;28;20036;-86
2023/11/01 13:31:04;;;;;;;6.15;2.90;;;;;;;17.92;49.74;93858.44;5045517;28;20215;-87
2023/11/01 13:33:30;;;;;;;8.20;2.83;;;;;;;17.91;49.71;93854.97;5045274;28;20030;-88
2023/11/01 13:35:56;;;;;;;4.90;2.78;;;;;;;17.90;49.77;93845.28;5048619;28;20025;-85
2023/11/01 13:38:21;;;;;;;6.07;3.03;;;;;;;18.00;49.49;93838.53;5045381;28;20215;-86
2023/11/01 13:40:47;;;;;;;9.13;3.00;;;;;;;18.07;49.45;93832.47;5045883;28;20100;-87
2023/11/01 13:43:14;;;;;;;8.73;3.00;;;;;;;18.09;50.30;93835.59;5044232;28;20048;-86
2023/11/01 13:45:39;;;;;;;10.25;3.28;;;;;;;18.15;48.63;93823.34;5046175;28;20025;-91
2023/11/01 13:48:05;;;;;;;9.07;2.47;;;;;;;18.09;48.55;93835.59;5045634;28;20048;-91
2023/11/01 13:50:31;;;;;;;8.90;3.20;;;;;;;18.14;48.80;93836.06;5045493;28;20092;-87
2023/11/01 13:52:56;;;;;;;10.02;3.03;;;;;;;18.19;48.69;93833.03;5045150;28;20029;-87
2023/11/01 13:55:21;;;;;;;9.32;4.43;;;;;;;18.22;49.44;93839.66;5044508;28;20033;-86
2023/11/01 13:57:47;;;;;;;11.40;3.17;;;;;;;18.28;48.89;93842.81;5043688;28;20319;-86
2023/11/01 14:00:13;;;;;;;7.30;3.22;;;;;;;18.33;48.57;93839.81;5044848;28;20108;-86
2023/11/01 14:02:38;;;;;;;4.90;2.88;;;;;;;18.21;50.46;93833.47;5043897;28;20036;-88
2023/11/01 14:05:04;;;;;;;5.28;2.97;;;;;;;18.04;51.12;93844.75;5045119;28;20022;-90
2023/11/01 14:07:29;;;;;;;6.00;3.33;;;;;;;17.66;51.42;93830.22;5044998;28;20029;-86
2023/11/01 14:09:55;;;;;;;5.22;3.10;;;;;;;17.27;52.72;93830.28;5044294;28;20034;-85
2023/11/01 14:12:21;;;;;;;7.10;3.70;;;;;;;17.09;53.52;93838.00;5044505;28;20033;-83
2023/11/01 14:14:46;;;;;;;9.18;4.07;;;;;;;16.77;53.94;93840.81;5044659;28;20025;-83
2023/11/01 14:17:15;;;;;;;6.85;3.13;;;;;;;16.63;54.41;93827.03;5043357;28;20033;-84
2023/11/01 14:19:40;;;;;;;7.28;3.45;;;;;;;16.42;56.57;93832.72;5043636;28;20053;-85
2023/11/01 14:22:06;;;;;;;6.47;3.65;;;;;;;16.28;57.08;93824.31;5044520;28;20331;-86
2023/11/01 14:24:31;;;;;;;7.47;3.35;;;;;;;16.00;57.77;93830.63;5044517;28;20052;-84
2023/11/01 14:26:57;;;;;;;6.07;3.10;;;;;;;15.65;58.73;93828.56;5044293;28;20071;-80
2023/11/01 14:29:22;;;;;;;8.20;3.42;;;;;;;15.54;58.67;93816.78;5044187;28;20188;-82
2023/11/01 14:31:48;;;;;;;8.20;3.85;;;;;;;15.43;58.83;93829.94;5044577;28;20024;-80
2023/11/01 14:34:13;;;;;;;7.53;3.13;;;;;;;15.45;59.10;93833.81;5044128;28;20022;-82
2023/11/01 14:36:39;;;;;;;11.90;3.70;;;;;;;15.34;59.71;93838.13;5044141;28;20029;-80
2023/11/01 14:39:04;;;;;;;17.25;4.38;;;;;;;15.32;60.43;93829.63;5044276;28;20075;-81
2023/11/01 14:41:30;;;;;;;10.27;3.70;;;;;;;15.21;60.84;93823.22;5043992;28;20041;-82
2023/11/01 14:43:56;;;;;;;9.02;3.83;;;;;;;15.12;61.03;93827.94;5043824;28;20021;-83
2023/11/01 14:46:21;;;;;;;20.42;4.35;;;;;;;14.99;61.76;93829.91;5042804;28;20048;-82
2023/11/01 14:48:46;;;;;;;12.00;4.00;;;;;;;14.86;61.63;93818.44;5044129;28;20441;-83
2023/11/01 14:51:12;;;;;;;7.30;3.60;;;;;;;14.76;62.18;93821.59;5043924;28;20029;-83
2023/11/01 14:53:37;;;;;;;7.93;3.72;;;;;;;14.68;62.65;93830.56;5043935;28;20211;-83
2023/11/01 14:56:09;;;;;;;7.00;3.47;;;;;;;14.63;63.14;93823.50;5045008;28;20067;-85
2023/11/01 14:58:35;;;;;;;6.75;3.42;;;;;;;14.33;63.66;93817.59;5045195;28;20037;-84
2023/11/01 15:01:01;;;;;;;7.38;3.20;;;;;;;14.24;63.60;93829.22;5043770;28;20193;-84
2023/11/01 15:03:26;;;;;;;8.70;3.80;;;;;;;14.16;63.54;93813.28;5045048;28;20019;-80
2023/11/01 15:05:52;;;;;;;8.23;4.10;;;;;;;14.07;63.56;93821.44;5043444;28;20030;-84
2023/11/01 15:08:22;;;;;;;15.10;3.67;;;;;;;14.01;63.40;93809.38;5044122;28;20021;-84
2023/11/01 15:10:47;;;;;;;4.90;3.00;;;;;;;13.89;63.26;93799.44;5044642;28;20021;-83
2023/11/01 15:13:14;;;;;;;7.63;3.47;;;;;;;13.85;63.23;93810.03;5045275;28;20032;-83
2023/11/01 15:15:39;;;;;;;7.60;3.85;;;;;;;13.77;63.19;93812.81;5043684;28;20096;-83
2023/11/01 15:18:06;;;;;;;5.10;3.03;;;;;;;13.71;63.51;93806.91;5043667;28;20056;-82
2023/11/01 15:20:31;;;;;;;7.28;3.08;;;;;;;13.68;63.54;93810.25;5043359;28;20018;-83
2023/11/01 15:22:57;;;;;;;8.35;3.35;;;;;;;13.65;63.65;93816.28;5043341;28;20017;-83
2023/11/01 15:25:22;;;;;;;9.57;4.30;;;;;;;13.58;63.96;93808.78;5043249;28;20017;-83
2023/11/01 15:27:48;;;;;;;9.77;3.95;;;;;;;13.57;63.92;93803.75;5043574;28;20324;-83
2023/11/01 15:30:15;;;;;;;20.52;3.70;;;;;;;13.51;63.82;93805.09;5043138;28;20036;-85
2023/11/01 15:32:41;;;;;;;5.15;3.05;;;;;;;13.49;63.55;93812.66;5042137;28;20512;-84
2023/11/01 15:35:06;;;;;;;13.43;3.30;;;;;;;13.44;63.69;93811.78;5041925;28;20224;-83
2023/11/01 15:37:32;;;;;;;4.63;2.70;;;;;;;13.46;63.97;93818.72;5043248;28;20346;-86
2023/11/01 15:39:58;;;;;;;7.97;3.00;;;;;;;13.43;63.38;93817.44;5042301;28;20025;-88
2023/11/01 15:42:24;;;;;;;5.90;3.00;;;;;;;13.33;63.79;93821.34;5043701;28;20032;-87
2023/11/01 15:44:49;;;;;;;10.27;3.13;;;;;;;13.33;64.39;93816.00;5042127;28;20021;-86
2023/11/01 15:47:17;;;;;;;8.70;3.22;;;;;;;13.21;63.34;93807.91;5043050;28;20347;-86